sensor_id;sensor_type;location;lat;lon;timestamp;pressure;altitude;pressure_sealevel;temperature;humidity
75414;BME280;64758;52.122;5.404;2023-06-14T00:00:02;101661.56;;;17.69;54.70
75414;BME280;64758;52.122;5.404;2023-06-14T00:02:30;101667.56;;;17.71;54.39
75414;BME280;64758;52.122;5.404;2023-06-14T00:04:57;101674.78;;;17.71;54.94
75414;BME280;64758;52.122;5.404;2023-06-14T00:07:38;101671.28;;;17.70;54.12
75414;BME280;64758;52.122;5.404;2023-06-14T00:10:10;101667.56;;;17.71;54.57
75414;BME280;64758;52.122;5.404;2023-06-14T00:12:38;101667.31;;;17.73;54.17
75414;BME280;64758;52.122;5.404;2023-06-14T00:15:05;101675.59;;;17.78;54.91
75414;BME280;64758;52.122;5.404;2023-06-14T00:17:32;101666.28;;;17.74;54.49
75414;BME280;64758;52.122;5.404;2023-06-14T00:20:01;101676.63;;;17.77;54.87
75414;BME280;64758;52.122;5.404;2023-06-14T00:22:29;101675.59;;;17.78;55.07
75414;BME280;64758;52.122;5.404;2023-06-14T00:24:57;101673.31;;;17.75;53.92
75414;BME280;64758;52.122;5.404;2023-06-14T00:27:23;101673.13;;;17.76;53.92
75414;BME280;64758;52.122;5.404;2023-06-14T00:29:51;101675.19;;;17.74;54.14
75414;BME280;64758;52.122;5.404;2023-06-14T00:32:18;101685.34;;;17.72;54.23
75414;BME280;64758;52.122;5.404;2023-06-14T00:34:45;101683.88;;;17.70;54.92
75414;BME280;64758;52.122;5.404;2023-06-14T00:37:11;101676.44;;;17.72;54.14
75414;BME280;64758;52.122;5.404;2023-06-14T00:39:38;101670.44;;;17.70;53.97
75414;BME280;64758;52.122;5.404;2023-06-14T00:42:05;101681.81;;;17.72;54.26
75414;BME280;64758;52.122;5.404;2023-06-14T00:44:32;101677.88;;;17.68;54.70
75414;BME280;64758;52.122;5.404;2023-06-14T00:46:58;101675.84;;;17.63;54.22
75414;BME280;64758;52.122;5.404;2023-06-14T00:49:25;101682.03;;;17.64;54.36
75414;BME280;64758;52.122;5.404;2023-06-14T00:51:52;101666.75;;;17.58;54.63
75414;BME280;64758;52.122;5.404;2023-06-14T00:54:18;101676.47;;;17.59;54.93
75414;BME280;64758;52.122;5.404;2023-06-14T00:56:45;101679.56;;;17.56;55.60
75414;BME280;64758;52.122;5.404;2023-06-14T00:59:12;101682.25;;;17.56;54.57
75414;BME280;64758;52.122;5.404;2023-06-14T01:01:38;101673.59;;;17.54;55.34
75414;BME280;64758;52.122;5.404;2023-06-14T01:04:06;101675.03;;;17.50;55.06
75414;BME280;64758;52.122;5.404;2023-06-14T01:06:57;101681.25;;;17.50;53.92
75414;BME280;64758;52.122;5.404;2023-06-14T01:12:26;101674.22;;;17.43;54.49
75414;BME280;64758;52.122;5.404;2023-06-14T01:14:56;101672.59;;;17.42;55.03
75414;BME280;64758;52.122;5.404;2023-06-14T01:17:23;101676.72;;;17.44;55.16
75414;BME280;64758;52.122;5.404;2023-06-14T01:19:53;101669.50;;;17.38;55.24
75414;BME280;64758;52.122;5.404;2023-06-14T01:22:26;101670.94;;;17.41;55.24
75414;BME280;64758;52.122;5.404;2023-06-14T01:24:53;101672.19;;;17.38;55.91
75414;BME280;64758;52.122;5.404;2023-06-14T01:27:23;101680.03;;;17.40;55.35
75414;BME280;64758;52.122;5.404;2023-06-14T01:29:55;101688.31;;;17.38;55.42
75414;BME280;64758;52.122;5.404;2023-06-14T01:32:26;101669.69;;;17.37;56.15
75414;BME280;64758;52.122;5.404;2023-06-14T01:34:54;101663.28;;;17.38;55.69
75414;BME280;64758;52.122;5.404;2023-06-14T01:37:21;101676.72;;;17.38;56.84
75414;BME280;64758;52.122;5.404;2023-06-14T01:39:48;101677.94;;;17.29;56.32
75414;BME280;64758;52.122;5.404;2023-06-14T01:42:16;101682.94;;;17.25;56.98
75414;BME280;64758;52.122;5.404;2023-06-14T01:44:44;101676.50;;;17.20;56.91
75414;BME280;64758;52.122;5.404;2023-06-14T01:47:12;101687.91;;;17.15;57.85
75414;BME280;64758;52.122;5.404;2023-06-14T01:49:39;101689.13;;;17.06;56.65
75414;BME280;64758;52.122;5.404;2023-06-14T01:52:06;101690.38;;;16.97;57.81
75414;BME280;64758;52.122;5.404;2023-06-14T01:54:36;101687.50;;;16.92;58.27
75414;BME280;64758;52.122;5.404;2023-06-14T01:57:08;101680.44;;;16.85;59.75
75414;BME280;64758;52.122;5.404;2023-06-14T01:59:35;101690.34;;;16.78;59.33
75414;BME280;64758;52.122;5.404;2023-06-14T02:02:02;101681.06;;;16.67;60.32
75414;BME280;64758;52.122;5.404;2023-06-14T02:04:29;101683.13;;;16.59;61.75
75414;BME280;64758;52.122;5.404;2023-06-14T02:06:56;101689.50;;;16.52;63.16
75414;BME280;64758;52.122;5.404;2023-06-14T02:09:23;101692.59;;;16.49;64.18
75414;BME280;64758;52.122;5.404;2023-06-14T02:11:50;101683.72;;;16.42;64.59
75414;BME280;64758;52.122;5.404;2023-06-14T02:14:16;101682.84;;;16.28;64.19
75414;BME280;64758;52.122;5.404;2023-06-14T02:16:43;101689.41;;;16.26;63.50
75414;BME280;64758;52.122;5.404;2023-06-14T02:19:16;101696.44;;;16.20;64.53
75414;BME280;64758;52.122;5.404;2023-06-14T02:21:43;101681.16;;;16.14;63.54
75414;BME280;64758;52.122;5.404;2023-06-14T02:24:10;101686.06;;;16.11;63.73
75414;BME280;64758;52.122;5.404;2023-06-14T02:26:37;101679.44;;;16.00;63.50
75414;BME280;64758;52.122;5.404;2023-06-14T02:29:05;101687.25;;;15.95;62.72
75414;BME280;64758;52.122;5.404;2023-06-14T02:31:32;101684.16;;;15.92;64.37
75414;BME280;64758;52.122;5.404;2023-06-14T02:33:59;101687.44;;;15.87;65.18
75414;BME280;64758;52.122;5.404;2023-06-14T02:36:25;101685.94;;;15.78;65.36
75414;BME280;64758;52.122;5.404;2023-06-14T02:38:52;101692.91;;;15.73;66.11
75414;BME280;64758;52.122;5.404;2023-06-14T02:41:20;101687.16;;;15.69;66.28
75414;BME280;64758;52.122;5.404;2023-06-14T02:43:47;101692.84;;;15.60;65.04
75414;BME280;64758;52.122;5.404;2023-06-14T02:46:13;101693.84;;;15.52;65.20
75414;BME280;64758;52.122;5.404;2023-06-14T02:48:40;101701.00;;;15.45;64.91
75414;BME280;64758;52.122;5.404;2023-06-14T02:51:06;101695.22;;;15.42;65.60
75414;BME280;64758;52.122;5.404;2023-06-14T02:53:35;101696.84;;;15.36;66.01
75414;BME280;64758;52.122;5.404;2023-06-14T02:56:02;101697.34;;;15.26;65.41
75414;BME280;64758;52.122;5.404;2023-06-14T02:58:30;101699.16;;;15.19;66.01
75414;BME280;64758;52.122;5.404;2023-06-14T03:00:57;101708.19;;;15.18;67.74
75414;BME280;64758;52.122;5.404;2023-06-14T03:03:23;101699.94;;;15.13;68.28
75414;BME280;64758;52.122;5.404;2023-06-14T03:05:51;101711.88;;;15.10;68.08
75414;BME280;64758;52.122;5.404;2023-06-14T03:08:18;101712.63;;;15.04;68.66
75414;BME280;64758;52.122;5.404;2023-06-14T03:10:46;101720.34;;;14.93;68.92
75414;BME280;64758;52.122;5.404;2023-06-14T03:13:14;101715.34;;;14.83;69.16
75414;BME280;64758;52.122;5.404;2023-06-14T03:15:42;101728.25;;;14.80;68.86
75414;BME280;64758;52.122;5.404;2023-06-14T03:18:09;101724.03;;;14.71;67.74
75414;BME280;64758;52.122;5.404;2023-06-14T03:20:36;101727.09;;;14.68;69.01
75414;BME280;64758;52.122;5.404;2023-06-14T03:23:03;101732.00;;;14.64;68.89
75414;BME280;64758;52.122;5.404;2023-06-14T03:25:31;101733.03;;;14.63;70.35
75414;BME280;64758;52.122;5.404;2023-06-14T03:27:59;101727.84;;;14.62;70.64
75414;BME280;64758;52.122;5.404;2023-06-14T03:30:26;101727.44;;;14.58;71.40
75414;BME280;64758;52.122;5.404;2023-06-14T03:32:52;101725.78;;;14.57;71.02
75414;BME280;64758;52.122;5.404;2023-06-14T03:35:19;101733.78;;;14.57;71.75
75414;BME280;64758;52.122;5.404;2023-06-14T03:37:46;101725.31;;;14.54;71.99
75414;BME280;64758;52.122;5.404;2023-06-14T03:40:15;101730.22;;;14.50;71.54
75414;BME280;64758;52.122;5.404;2023-06-14T03:42:42;101730.03;;;14.52;72.38
75414;BME280;64758;52.122;5.404;2023-06-14T03:45:09;101734.06;;;14.62;72.10
75414;BME280;64758;52.122;5.404;2023-06-14T03:47:36;101733.03;;;14.63;71.60
75414;BME280;64758;52.122;5.404;2023-06-14T03:50:03;101741.09;;;14.70;70.93
75414;BME280;64758;52.122;5.404;2023-06-14T03:52:30;101734.75;;;14.71;70.86
75414;BME280;64758;52.122;5.404;2023-06-14T03:54:57;101748.13;;;14.71;70.18
75414;BME280;64758;52.122;5.404;2023-06-14T03:57:29;101751.31;;;14.81;70.57
75414;BME280;64758;52.122;5.404;2023-06-14T03:59:56;101747.81;;;14.80;70.29
75414;BME280;64758;52.122;5.404;2023-06-14T04:02:23;101749.34;;;14.89;70.77
75414;BME280;64758;52.122;5.404;2023-06-14T04:04:50;101757.16;;;14.91;69.96
75414;BME280;64758;52.122;5.404;2023-06-14T04:07:17;101758.25;;;14.96;71.17
75414;BME280;64758;52.122;5.404;2023-06-14T04:09:47;101758.06;;;14.98;70.28
75414;BME280;64758;52.122;5.404;2023-06-14T04:12:13;101763.66;;;15.03;70.69
75414;BME280;64758;52.122;5.404;2023-06-14T04:14:40;101768.63;;;15.06;69.95
75414;BME280;64758;52.122;5.404;2023-06-14T04:17:07;101771.16;;;15.14;69.99
75414;BME280;64758;52.122;5.404;2023-06-14T04:19:33;101768.75;;;15.19;68.20
75414;BME280;64758;52.122;5.404;2023-06-14T04:22:01;101766.94;;;15.26;69.07
75414;BME280;64758;52.122;5.404;2023-06-14T04:24:28;101766.00;;;15.33;68.91
75414;BME280;64758;52.122;5.404;2023-06-14T04:26:59;101762.75;;;15.37;69.49
75414;BME280;64758;52.122;5.404;2023-06-14T04:29:27;101770.81;;;15.44;69.86
75414;BME280;64758;52.122;5.404;2023-06-14T04:31:55;101774.56;;;15.49;68.66
75414;BME280;64758;52.122;5.404;2023-06-14T04:34:28;101760.41;;;15.55;68.24
75414;BME280;64758;52.122;5.404;2023-06-14T04:37:00;101771.16;;;15.62;67.25
75414;BME280;64758;52.122;5.404;2023-06-14T04:39:27;101772.03;;;15.69;66.88
75414;BME280;64758;52.122;5.404;2023-06-14T04:41:54;101765.06;;;15.74;66.17
75414;BME280;64758;52.122;5.404;2023-06-14T04:44:23;101775.22;;;15.85;66.92
75414;BME280;64758;52.122;5.404;2023-06-14T04:46:57;101780.44;;;15.93;66.25
75414;BME280;64758;52.122;5.404;2023-06-14T04:49:25;101780.03;;;15.96;65.38
75414;BME280;64758;52.122;5.404;2023-06-14T04:51:56;101780.91;;;16.03;65.39
75414;BME280;64758;52.122;5.404;2023-06-14T04:54:27;101786.09;;;16.11;66.11
75414;BME280;64758;52.122;5.404;2023-06-14T04:56:54;101785.31;;;16.17;66.33
75414;BME280;64758;52.122;5.404;2023-06-14T04:59:21;101785.53;;;16.22;65.46
75414;BME280;64758;52.122;5.404;2023-06-14T05:01:51;101786.38;;;16.29;64.34
75414;BME280;64758;52.122;5.404;2023-06-14T05:04:18;101784.16;;;16.33;65.94
75414;BME280;64758;52.122;5.404;2023-06-14T05:06:46;101783.75;;;16.36;65.14
75414;BME280;64758;52.122;5.404;2023-06-14T05:09:14;101785.63;;;16.42;64.41
75414;BME280;64758;52.122;5.404;2023-06-14T05:11:44;101791.66;;;16.50;64.86
75414;BME280;64758;52.122;5.404;2023-06-14T05:14:11;101789.00;;;16.57;64.47
75414;BME280;64758;52.122;5.404;2023-06-14T05:16:38;101794.34;;;16.63;64.03
75414;BME280;64758;52.122;5.404;2023-06-14T05:19:06;101795.63;;;16.73;64.32
75414;BME280;64758;52.122;5.404;2023-06-14T05:21:33;101793.78;;;16.74;62.76
75414;BME280;64758;52.122;5.404;2023-06-14T05:24:08;101794.03;;;16.85;63.57
75414;BME280;64758;52.122;5.404;2023-06-14T05:26:35;101793.22;;;16.91;63.09
75414;BME280;64758;52.122;5.404;2023-06-14T05:29:02;101798.16;;;17.01;61.52
75414;BME280;64758;52.122;5.404;2023-06-14T05:31:29;101796.31;;;17.08;62.68
75414;BME280;64758;52.122;5.404;2023-06-14T05:33:55;101802.31;;;17.16;61.94
75414;BME280;64758;52.122;5.404;2023-06-14T05:36:22;101803.16;;;17.23;61.17
75414;BME280;64758;52.122;5.404;2023-06-14T05:38:49;101804.84;;;17.37;61.10
75414;BME280;64758;52.122;5.404;2023-06-14T05:41:17;101809.78;;;17.47;61.39
75414;BME280;64758;52.122;5.404;2023-06-14T05:43:43;101813.09;;;17.49;60.33
75414;BME280;64758;52.122;5.404;2023-06-14T05:46:10;101813.31;;;17.60;59.30
75414;BME280;64758;52.122;5.404;2023-06-14T05:48:36;101810.19;;;17.70;58.98
75414;BME280;64758;52.122;5.404;2023-06-14T05:51:03;101813.09;;;17.75;58.46
75414;BME280;64758;52.122;5.404;2023-06-14T05:53:30;101808.53;;;17.82;57.63
75414;BME280;64758;52.122;5.404;2023-06-14T05:55:56;101819.06;;;17.90;57.47
75414;BME280;64758;52.122;5.404;2023-06-14T05:58:23;101809.72;;;17.98;58.61
75414;BME280;64758;52.122;5.404;2023-06-14T06:00:49;101821.28;;;18.12;57.01
75414;BME280;64758;52.122;5.404;2023-06-14T06:03:17;101818.75;;;18.23;58.02
75414;BME280;64758;52.122;5.404;2023-06-14T06:05:43;101816.31;;;18.28;56.38
75414;BME280;64758;52.122;5.404;2023-06-14T06:08:10;101817.72;;;18.37;56.67
75414;BME280;64758;52.122;5.404;2023-06-14T06:10:37;101816.25;;;18.41;55.67
75414;BME280;64758;52.122;5.404;2023-06-14T06:13:03;101824.91;;;18.50;55.34
75414;BME280;64758;52.122;5.404;2023-06-14T06:15:30;101825.06;;;18.61;54.54
75414;BME280;64758;52.122;5.404;2023-06-14T06:17:56;101827.50;;;18.69;55.08
75414;BME280;64758;52.122;5.404;2023-06-14T06:20:24;101828.31;;;18.76;54.28
75414;BME280;64758;52.122;5.404;2023-06-14T06:22:56;101832.59;;;18.84;53.71
75414;BME280;64758;52.122;5.404;2023-06-14T06:25:24;101829.47;;;18.87;52.89
75414;BME280;64758;52.122;5.404;2023-06-14T06:27:53;101819.66;;;18.99;55.61
75414;BME280;64758;52.122;5.404;2023-06-14T06:30:19;101826.63;;;19.13;54.35
75414;BME280;64758;52.122;5.404;2023-06-14T06:32:46;101828.81;;;19.28;54.32
75414;BME280;64758;52.122;5.404;2023-06-14T06:35:14;101830.81;;;19.39;54.13
75414;BME280;64758;52.122;5.404;2023-06-14T06:37:41;101823.25;;;19.48;54.65
75414;BME280;64758;52.122;5.404;2023-06-14T06:40:09;101829.59;;;19.60;52.93
75414;BME280;64758;52.122;5.404;2023-06-14T06:42:36;101833.06;;;19.67;53.59
75414;BME280;64758;52.122;5.404;2023-06-14T06:45:03;101835.03;;;19.78;52.13
75414;BME280;64758;52.122;5.404;2023-06-14T06:47:30;101830.56;;;19.90;53.55
75414;BME280;64758;52.122;5.404;2023-06-14T06:49:56;101837.31;;;19.99;51.47
75414;BME280;64758;52.122;5.404;2023-06-14T06:52:23;101841.41;;;20.08;51.20
75414;BME280;64758;52.122;5.404;2023-06-14T06:54:49;101843.19;;;20.14;51.97
75414;BME280;64758;52.122;5.404;2023-06-14T06:57:21;101848.91;;;20.24;49.54
75414;BME280;64758;52.122;5.404;2023-06-14T06:59:49;101850.84;;;20.35;51.52
75414;BME280;64758;52.122;5.404;2023-06-14T07:02:16;101846.34;;;20.47;50.60
75414;BME280;64758;52.122;5.404;2023-06-14T07:04:43;101847.47;;;20.57;51.16
75414;BME280;64758;52.122;5.404;2023-06-14T07:07:09;101851.75;;;20.64;50.29
75414;BME280;64758;52.122;5.404;2023-06-14T07:09:36;101852.25;;;20.73;50.88
75414;BME280;64758;52.122;5.404;2023-06-14T07:12:03;101852.63;;;20.76;48.65
75414;BME280;64758;52.122;5.404;2023-06-14T07:14:30;101852.03;;;20.92;49.31
75414;BME280;64758;52.122;5.404;2023-06-14T07:16:56;101856.06;;;21.01;48.76
75414;BME280;64758;52.122;5.404;2023-06-14T07:19:23;101857.47;;;21.04;47.16
75414;BME280;64758;52.122;5.404;2023-06-14T07:21:49;101858.78;;;21.13;48.74
75414;BME280;64758;52.122;5.404;2023-06-14T07:24:16;101852.59;;;21.24;48.47
75414;BME280;64758;52.122;5.404;2023-06-14T07:26:43;101864.25;;;21.36;48.22
75414;BME280;64758;52.122;5.404;2023-06-14T07:29:09;101867.94;;;21.41;46.06
75414;BME280;64758;52.122;5.404;2023-06-14T07:31:36;101867.00;;;21.47;45.84
75414;BME280;64758;52.122;5.404;2023-06-14T07:34:03;101877.69;;;21.54;45.63
75414;BME280;64758;52.122;5.404;2023-06-14T07:36:30;101866.41;;;21.57;45.98
75414;BME280;64758;52.122;5.404;2023-06-14T07:38:56;101873.47;;;21.58;45.14
75414;BME280;64758;52.122;5.404;2023-06-14T07:41:23;101867.47;;;21.56;44.77
75414;BME280;64758;52.122;5.404;2023-06-14T07:43:50;101876.72;;;21.66;45.27
75414;BME280;64758;52.122;5.404;2023-06-14T07:46:16;101880.09;;;21.73;44.88
75414;BME280;64758;52.122;5.404;2023-06-14T07:48:43;101878.09;;;21.80;44.35
75414;BME280;64758;52.122;5.404;2023-06-14T07:51:10;101879.75;;;21.81;43.48
75414;BME280;64758;52.122;5.404;2023-06-14T07:53:37;101881.88;;;21.79;44.35
75414;BME280;64758;52.122;5.404;2023-06-14T07:56:03;101887.66;;;21.94;43.59
75414;BME280;64758;52.122;5.404;2023-06-14T07:58:30;101887.31;;;22.02;43.68
75414;BME280;64758;52.122;5.404;2023-06-14T08:00:56;101893.53;;;22.14;44.24
75414;BME280;64758;52.122;5.404;2023-06-14T08:03:23;101882.47;;;22.27;44.25
75414;BME280;64758;52.122;5.404;2023-06-14T08:05:50;101890.00;;;22.25;42.46
75414;BME280;64758;52.122;5.404;2023-06-14T08:08:17;101888.13;;;22.25;42.67
75414;BME280;64758;52.122;5.404;2023-06-14T08:10:44;101886.72;;;22.34;42.47
75414;BME280;64758;52.122;5.404;2023-06-14T08:13:10;101887.28;;;22.48;42.95
75414;BME280;64758;52.122;5.404;2023-06-14T08:15:37;101877.84;;;22.62;42.24
75414;BME280;64758;52.122;5.404;2023-06-14T08:18:04;101886.28;;;22.77;42.85
75414;BME280;64758;52.122;5.404;2023-06-14T08:20:31;101879.69;;;22.84;40.73
75414;BME280;64758;52.122;5.404;2023-06-14T08:22:58;101879.88;;;22.94;41.32
75414;BME280;64758;52.122;5.404;2023-06-14T08:25:24;101878.47;;;22.92;39.33
75414;BME280;64758;52.122;5.404;2023-06-14T08:27:52;101880.00;;;22.88;40.71
75414;BME280;64758;52.122;5.404;2023-06-14T08:30:19;101876.63;;;22.81;38.35
75414;BME280;64758;52.122;5.404;2023-06-14T08:32:45;101881.81;;;22.82;38.81
75414;BME280;64758;52.122;5.404;2023-06-14T08:35:16;101882.81;;;22.93;39.91
75414;BME280;64758;52.122;5.404;2023-06-14T08:37:44;101888.06;;;23.11;40.05
75414;BME280;64758;52.122;5.404;2023-06-14T08:40:22;101880.72;;;23.23;40.55
75414;BME280;64758;52.122;5.404;2023-06-14T08:42:53;101889.03;;;23.32;37.63
75414;BME280;64758;52.122;5.404;2023-06-14T08:45:24;101880.16;;;23.37;38.02
75414;BME280;64758;52.122;5.404;2023-06-14T08:47:53;101878.84;;;23.39;36.72
75414;BME280;64758;52.122;5.404;2023-06-14T08:50:25;101878.53;;;23.52;39.21
75414;BME280;64758;52.122;5.404;2023-06-14T08:52:57;101879.78;;;23.61;38.74
75414;BME280;64758;52.122;5.404;2023-06-14T08:55:27;101878.03;;;23.72;37.82
75414;BME280;64758;52.122;5.404;2023-06-14T08:57:55;101883.31;;;23.78;38.45
75414;BME280;64758;52.122;5.404;2023-06-14T09:00:25;101881.03;;;23.87;38.08
75414;BME280;64758;52.122;5.404;2023-06-14T09:02:52;101882.47;;;23.78;36.07
75414;BME280;64758;52.122;5.404;2023-06-14T09:05:25;101877.97;;;23.67;35.37
75414;BME280;64758;52.122;5.404;2023-06-14T09:07:53;101886.09;;;23.67;35.90
75414;BME280;64758;52.122;5.404;2023-06-14T09:10:21;101886.94;;;23.84;36.07
75414;BME280;64758;52.122;5.404;2023-06-14T09:12:49;101893.88;;;23.91;34.89
75414;BME280;64758;52.122;5.404;2023-06-14T09:15:16;101889.44;;;23.85;35.69
75414;BME280;64758;52.122;5.404;2023-06-14T09:17:43;101886.88;;;23.95;37.03
75414;BME280;64758;52.122;5.404;2023-06-14T09:20:10;101883.81;;;24.08;36.70
75414;BME280;64758;52.122;5.404;2023-06-14T09:22:37;101889.44;;;24.23;36.28
75414;BME280;64758;52.122;5.404;2023-06-14T09:25:05;101888.25;;;24.14;35.32
75414;BME280;64758;52.122;5.404;2023-06-14T09:27:32;101879.78;;;24.32;35.11
75414;BME280;64758;52.122;5.404;2023-06-14T09:30:03;101890.00;;;24.42;35.75
75414;BME280;64758;52.122;5.404;2023-06-14T09:32:30;101886.09;;;24.54;36.14
75414;BME280;64758;52.122;5.404;2023-06-14T09:34:58;101886.16;;;24.59;34.83
75414;BME280;64758;52.122;5.404;2023-06-14T09:39:56;101893.84;;;24.46;33.09
75414;BME280;64758;52.122;5.404;2023-06-14T09:42:23;101900.53;;;24.38;31.94
75414;BME280;64758;52.122;5.404;2023-06-14T09:44:53;101888.28;;;24.36;33.79
75414;BME280;64758;52.122;5.404;2023-06-14T09:47:25;101886.06;;;24.33;33.04
75414;BME280;64758;52.122;5.404;2023-06-14T09:49:52;101886.88;;;24.33;34.07
75414;BME280;64758;52.122;5.404;2023-06-14T09:52:22;101887.84;;;24.44;34.78
75414;BME280;64758;52.122;5.404;2023-06-14T09:54:49;101883.94;;;24.56;35.17
75414;BME280;64758;52.122;5.404;2023-06-14T09:57:20;101887.63;;;24.66;34.89
75414;BME280;64758;52.122;5.404;2023-06-14T09:59:48;101886.97;;;24.81;34.24
75414;BME280;64758;52.122;5.404;2023-06-14T10:02:22;101888.97;;;24.85;34.74
75414;BME280;64758;52.122;5.404;2023-06-14T10:04:57;101890.34;;;24.88;33.68
75414;BME280;64758;52.122;5.404;2023-06-14T10:07:30;101877.75;;;24.82;34.28
75414;BME280;64758;52.122;5.404;2023-06-14T10:09:58;101868.56;;;24.88;34.41
75414;BME280;64758;52.122;5.404;2023-06-14T10:12:25;101873.38;;;25.02;33.81
75414;BME280;64758;52.122;5.404;2023-06-14T10:14:53;101873.94;;;25.04;32.97
75414;BME280;64758;52.122;5.404;2023-06-14T10:20:16;101881.66;;;24.91;29.98
75414;BME280;64758;52.122;5.404;2023-06-14T10:22:49;101880.59;;;24.92;31.80
75414;BME280;64758;52.122;5.404;2023-06-14T10:25:27;101877.41;;;25.00;32.30
75414;BME280;64758;52.122;5.404;2023-06-14T10:28:20;101882.09;;;25.04;30.74
75414;BME280;64758;52.122;5.404;2023-06-14T10:31:08;101871.09;;;25.16;32.58
75414;BME280;64758;52.122;5.404;2023-06-14T10:33:41;101864.44;;;25.28;31.72
75414;BME280;64758;52.122;5.404;2023-06-14T10:39:07;101884.00;;;25.57;32.99
75414;BME280;64758;52.122;5.404;2023-06-14T10:41:36;101864.06;;;25.51;31.46
75414;BME280;64758;52.122;5.404;2023-06-14T10:46:58;101869.75;;;25.45;31.85
75414;BME280;64758;52.122;5.404;2023-06-14T10:49:44;101862.47;;;25.55;32.40
75414;BME280;64758;52.122;5.404;2023-06-14T10:52:13;101869.41;;;25.68;34.26
75414;BME280;64758;52.122;5.404;2023-06-14T10:57:22;101875.50;;;25.48;31.71
75414;BME280;64758;52.122;5.404;2023-06-14T10:59:50;101868.41;;;25.47;32.74
75414;BME280;64758;52.122;5.404;2023-06-14T11:02:27;101869.69;;;25.40;31.95
75414;BME280;64758;52.122;5.404;2023-06-14T11:05:04;101862.13;;;25.47;33.24
75414;BME280;64758;52.122;5.404;2023-06-14T11:10:38;101864.47;;;25.65;32.73
75414;BME280;64758;52.122;5.404;2023-06-14T11:13:06;101870.81;;;25.75;31.71
75414;BME280;64758;52.122;5.404;2023-06-14T11:15:34;101866.47;;;25.79;33.45
75414;BME280;64758;52.122;5.404;2023-06-14T11:18:02;101871.22;;;25.89;31.50
75414;BME280;64758;52.122;5.404;2023-06-14T11:20:31;101861.16;;;25.94;32.69
75414;BME280;64758;52.122;5.404;2023-06-14T11:22:59;101876.78;;;26.03;32.46
75414;BME280;64758;52.122;5.404;2023-06-14T11:25:26;101871.25;;;25.94;32.84
75414;BME280;64758;52.122;5.404;2023-06-14T11:27:54;101871.53;;;25.97;32.33
75414;BME280;64758;52.122;5.404;2023-06-14T11:30:24;101861.72;;;25.96;31.06
75414;BME280;64758;52.122;5.404;2023-06-14T11:32:53;101856.53;;;25.90;31.42
75414;BME280;64758;52.122;5.404;2023-06-14T11:35:25;101856.50;;;25.85;30.53
75414;BME280;64758;52.122;5.404;2023-06-14T11:37:56;101853.69;;;25.80;31.48
75414;BME280;64758;52.122;5.404;2023-06-14T11:40:27;101851.34;;;25.93;31.25
75414;BME280;64758;52.122;5.404;2023-06-14T11:43:01;101852.53;;;26.07;31.15
75414;BME280;64758;52.122;5.404;2023-06-14T11:45:29;101852.88;;;26.15;32.65
75414;BME280;64758;52.122;5.404;2023-06-14T11:47:58;101861.38;;;26.24;32.33
75414;BME280;64758;52.122;5.404;2023-06-14T11:50:26;101859.31;;;25.99;31.56
75414;BME280;64758;52.122;5.404;2023-06-14T11:52:58;101849.97;;;25.86;32.40
75414;BME280;64758;52.122;5.404;2023-06-14T11:55:26;101844.69;;;25.79;31.43
75414;BME280;64758;52.122;5.404;2023-06-14T11:57:54;101845.59;;;25.85;30.35
75414;BME280;64758;52.122;5.404;2023-06-14T12:00:25;101851.44;;;26.03;32.03
75414;BME280;64758;52.122;5.404;2023-06-14T12:02:53;101858.25;;;26.00;31.55
75414;BME280;64758;52.122;5.404;2023-06-14T12:05:24;101864.97;;;25.93;30.73
75414;BME280;64758;52.122;5.404;2023-06-14T12:07:58;101856.75;;;25.83;30.65
75414;BME280;64758;52.122;5.404;2023-06-14T12:10:27;101850.88;;;26.01;33.28
75414;BME280;64758;52.122;5.404;2023-06-14T12:12:58;101854.16;;;26.03;31.58
75414;BME280;64758;52.122;5.404;2023-06-14T12:15:28;101860.72;;;26.07;31.93
75414;BME280;64758;52.122;5.404;2023-06-14T12:17:58;101842.47;;;26.07;32.19
75414;BME280;64758;52.122;5.404;2023-06-14T12:20:29;101860.09;;;25.95;32.18
75414;BME280;64758;52.122;5.404;2023-06-14T12:22:58;101861.41;;;25.88;32.88
75414;BME280;64758;52.122;5.404;2023-06-14T12:25:36;101851.28;;;25.83;32.00
75414;BME280;64758;52.122;5.404;2023-06-14T12:28:08;101852.44;;;25.92;32.48
75414;BME280;64758;52.122;5.404;2023-06-14T12:30:36;101846.22;;;25.97;32.85
75414;BME280;64758;52.122;5.404;2023-06-14T12:33:04;101859.41;;;26.14;34.04
75414;BME280;64758;52.122;5.404;2023-06-14T12:35:31;101847.47;;;26.20;30.35
75414;BME280;64758;52.122;5.404;2023-06-14T12:37:57;101856.09;;;26.07;31.64
75414;BME280;64758;52.122;5.404;2023-06-14T12:40:24;101852.88;;;26.15;31.70
75414;BME280;64758;52.122;5.404;2023-06-14T12:42:51;101848.03;;;26.27;30.74
75414;BME280;64758;52.122;5.404;2023-06-14T12:45:17;101852.66;;;26.27;30.73
75414;BME280;64758;52.122;5.404;2023-06-14T12:47:44;101848.22;;;26.57;30.93
75414;BME280;64758;52.122;5.404;2023-06-14T12:50:12;101848.81;;;26.74;29.68
75414;BME280;64758;52.122;5.404;2023-06-14T12:52:39;101843.91;;;26.76;31.55
75414;BME280;64758;52.122;5.404;2023-06-14T12:55:06;101837.38;;;26.77;29.47
75414;BME280;64758;52.122;5.404;2023-06-14T12:57:33;101845.88;;;26.96;30.41
75414;BME280;64758;52.122;5.404;2023-06-14T13:00:01;101846.69;;;27.01;28.75
75414;BME280;64758;52.122;5.404;2023-06-14T13:02:28;101849.75;;;27.15;29.96
75414;BME280;64758;52.122;5.404;2023-06-14T13:04:55;101856.50;;;27.02;28.46
75414;BME280;64758;52.122;5.404;2023-06-14T13:07:22;101851.09;;;27.12;30.50
75414;BME280;64758;52.122;5.404;2023-06-14T13:09:48;101862.59;;;27.29;28.65
75414;BME280;64758;52.122;5.404;2023-06-14T13:12:15;101859.84;;;27.14;28.59
75414;BME280;64758;52.122;5.404;2023-06-14T13:14:42;101850.31;;;27.17;27.74